sensor_id;sensor_type;location;lat;lon;timestamp;temperature;humidity
27779;DHT22;30234;48.090;11.464;2023-07-29T00:03:25;15.80;99.90
27779;DHT22;30234;48.090;11.464;2023-07-29T00:07:26;15.70;99.90
27779;DHT22;30234;48.090;11.464;2023-07-29T00:11:27;15.70;99.90
27779;DHT22;30234;48.090;11.464;2023-07-29T00:15:28;15.70;99.90
27779;DHT22;30234;48.090;11.464;2023-07-29T00:19:28;15.90;99.90
27779;DHT22;30234;48.090;11.464;2023-07-29T00:23:29;16.10;99.90
27779;DHT22;30234;48.090;11.464;2023-07-29T00:27:31;16.30;99.90
27779;DHT22;30234;48.090;11.464;2023-07-29T00:31:32;16.30;99.90
27779;DHT22;30234;48.090;11.464;2023-07-29T00:35:34;16.40;99.90
27779;DHT22;30234;48.090;11.464;2023-07-29T00:39:35;16.40;99.90
27779;DHT22;30234;48.090;11.464;2023-07-29T00:43:36;16.90;99.90
27779;DHT22;30234;48.090;11.464;2023-07-29T00:47:38;16.60;99.90
27779;DHT22;30234;48.090;11.464;2023-07-29T00:51:39;16.50;99.90
27779;DHT22;30234;48.090;11.464;2023-07-29T00:55:41;16.50;99.90
27779;DHT22;30234;48.090;11.464;2023-07-29T00:59:42;16.50;99.90
27779;DHT22;30234;48.090;11.464;2023-07-29T01:03:43;16.30;99.90
27779;DHT22;30234;48.090;11.464;2023-07-29T01:08:14;16.30;99.90
27779;DHT22;30234;48.090;11.464;2023-07-29T01:17:03;16.00;99.90
27779;DHT22;30234;48.090;11.464;2023-07-29T01:21:07;15.80;99.90
27779;DHT22;30234;48.090;11.464;2023-07-29T01:25:09;15.60;99.90
27779;DHT22;30234;48.090;11.464;2023-07-29T01:29:10;15.50;99.90
27779;DHT22;30234;48.090;11.464;2023-07-29T01:33:34;15.40;99.90
27779;DHT22;30234;48.090;11.464;2023-07-29T01:37:38;15.10;99.90
27779;DHT22;30234;48.090;11.464;2023-07-29T01:41:40;15.10;99.90
27779;DHT22;30234;48.090;11.464;2023-07-29T01:45:42;15.00;99.90
27779;DHT22;30234;48.090;11.464;2023-07-29T01:49:43;14.90;99.90
27779;DHT22;30234;48.090;11.464;2023-07-29T01:53:43;15.00;99.90
27779;DHT22;30234;48.090;11.464;2023-07-29T01:57:44;14.90;99.90
27779;DHT22;30234;48.090;11.464;2023-07-29T02:01:45;15.00;99.90
27779;DHT22;30234;48.090;11.464;2023-07-29T02:05:47;15.00;99.90
27779;DHT22;30234;48.090;11.464;2023-07-29T02:09:47;14.90;99.90
27779;DHT22;30234;48.090;11.464;2023-07-29T02:13:48;14.90;99.90
27779;DHT22;30234;48.090;11.464;2023-07-29T02:17:50;14.90;99.90
27779;DHT22;30234;48.090;11.464;2023-07-29T02:21:52;14.80;99.90
27779;DHT22;30234;48.090;11.464;2023-07-29T02:25:53;14.70;99.90
27779;DHT22;30234;48.090;11.464;2023-07-29T02:29:54;15.50;99.90
27779;DHT22;30234;48.090;11.464;2023-07-29T02:33:55;14.50;99.90
27779;DHT22;30234;48.090;11.464;2023-07-29T02:37:56;14.60;99.90
27779;DHT22;30234;48.090;11.464;2023-07-29T02:41:57;14.50;99.90
27779;DHT22;30234;48.090;11.464;2023-07-29T02:45:58;14.60;99.90
27779;DHT22;30234;48.090;11.464;2023-07-29T02:49:59;14.60;99.90
27779;DHT22;30234;48.090;11.464;2023-07-29T02:54:00;14.50;99.90
27779;DHT22;30234;48.090;11.464;2023-07-29T02:58:01;14.50;99.90
27779;DHT22;30234;48.090;11.464;2023-07-29T03:02:02;14.60;99.90
27779;DHT22;30234;48.090;11.464;2023-07-29T03:06:06;14.60;99.90
27779;DHT22;30234;48.090;11.464;2023-07-29T03:10:08;14.70;99.90
27779;DHT22;30234;48.090;11.464;2023-07-29T03:14:09;14.70;99.90
27779;DHT22;30234;48.090;11.464;2023-07-29T03:18:10;14.80;99.90
27779;DHT22;30234;48.090;11.464;2023-07-29T03:22:11;14.80;99.90
27779;DHT22;30234;48.090;11.464;2023-07-29T03:26:12;14.80;99.90
27779;DHT22;30234;48.090;11.464;2023-07-29T03:30:13;14.80;99.90
27779;DHT22;30234;48.090;11.464;2023-07-29T03:34:13;14.80;99.90
27779;DHT22;30234;48.090;11.464;2023-07-29T03:38:15;15.00;99.90
27779;DHT22;30234;48.090;11.464;2023-07-29T03:42:16;14.90;99.90
27779;DHT22;30234;48.090;11.464;2023-07-29T03:46:17;15.10;99.90
27779;DHT22;30234;48.090;11.464;2023-07-29T03:50:20;15.10;99.90
27779;DHT22;30234;48.090;11.464;2023-07-29T03:54:21;15.30;99.90
27779;DHT22;30234;48.090;11.464;2023-07-29T03:58:22;15.20;99.90
27779;DHT22;30234;48.090;11.464;2023-07-29T04:02:23;15.30;99.90
27779;DHT22;30234;48.090;11.464;2023-07-29T04:06:24;15.40;99.90
27779;DHT22;30234;48.090;11.464;2023-07-29T04:10:24;15.40;99.90
27779;DHT22;30234;48.090;11.464;2023-07-29T04:14:25;15.50;99.90
27779;DHT22;30234;48.090;11.464;2023-07-29T04:18:26;15.60;99.90
27779;DHT22;30234;48.090;11.464;2023-07-29T04:22:27;15.50;99.90
27779;DHT22;30234;48.090;11.464;2023-07-29T04:26:28;15.50;99.90
27779;DHT22;30234;48.090;11.464;2023-07-29T04:30:29;15.50;99.90
27779;DHT22;30234;48.090;11.464;2023-07-29T04:34:30;15.50;99.90
27779;DHT22;30234;48.090;11.464;2023-07-29T04:38:32;15.60;99.90
27779;DHT22;30234;48.090;11.464;2023-07-29T04:42:33;15.60;99.90
27779;DHT22;30234;48.090;11.464;2023-07-29T04:46:36;17.10;99.90
27779;DHT22;30234;48.090;11.464;2023-07-29T04:50:37;17.60;99.90
27779;DHT22;30234;48.090;11.464;2023-07-29T04:54:38;18.40;99.90
27779;DHT22;30234;48.090;11.464;2023-07-29T04:58:39;19.80;99.90
27779;DHT22;30234;48.090;11.464;2023-07-29T05:02:40;19.80;99.90
27779;DHT22;30234;48.090;11.464;2023-07-29T05:06:41;20.90;99.90
27779;DHT22;30234;48.090;11.464;2023-07-29T05:10:42;21.10;99.90
27779;DHT22;30234;48.090;11.464;2023-07-29T05:14:43;20.20;99.90
27779;DHT22;30234;48.090;11.464;2023-07-29T05:18:43;20.80;99.90
27779;DHT22;30234;48.090;11.464;2023-07-29T05:22:44;21.20;99.90
27779;DHT22;30234;48.090;11.464;2023-07-29T05:26:45;21.00;99.90
27779;DHT22;30234;48.090;11.464;2023-07-29T05:30:46;20.80;99.90
27779;DHT22;30234;48.090;11.464;2023-07-29T05:34:47;22.20;99.90
27779;DHT22;30234;48.090;11.464;2023-07-29T05:38:48;21.60;99.90
27779;DHT22;30234;48.090;11.464;2023-07-29T05:42:49;21.00;99.90
27779;DHT22;30234;48.090;11.464;2023-07-29T05:46:50;20.60;99.90
27779;DHT22;30234;48.090;11.464;2023-07-29T05:50:51;20.40;99.90
27779;DHT22;30234;48.090;11.464;2023-07-29T05:54:52;19.70;99.90
27779;DHT22;30234;48.090;11.464;2023-07-29T05:58:52;19.00;99.90
27779;DHT22;30234;48.090;11.464;2023-07-29T06:02:53;18.30;99.90
27779;DHT22;30234;48.090;11.464;2023-07-29T06:06:54;17.60;99.90
27779;DHT22;30234;48.090;11.464;2023-07-29T06:10:56;17.10;99.90
27779;DHT22;30234;48.090;11.464;2023-07-29T06:14:57;16.80;99.90
27779;DHT22;30234;48.090;11.464;2023-07-29T06:18:58;16.80;99.90
27779;DHT22;30234;48.090;11.464;2023-07-29T06:22:59;16.80;99.90
27779;DHT22;30234;48.090;11.464;2023-07-29T06:26:59;16.80;99.90
27779;DHT22;30234;48.090;11.464;2023-07-29T06:31:01;17.20;99.90
27779;DHT22;30234;48.090;11.464;2023-07-29T06:35:02;17.30;99.90
27779;DHT22;30234;48.090;11.464;2023-07-29T06:39:03;17.40;99.90
27779;DHT22;30234;48.090;11.464;2023-07-29T06:43:04;17.40;99.90
27779;DHT22;30234;48.090;11.464;2023-07-29T06:47:05;17.40;99.90
27779;DHT22;30234;48.090;11.464;2023-07-29T06:51:06;17.50;99.90
27779;DHT22;30234;48.090;11.464;2023-07-29T06:55:09;17.40;99.90
27779;DHT22;30234;48.090;11.464;2023-07-29T06:59:10;17.30;99.90
27779;DHT22;30234;48.090;11.464;2023-07-29T07:03:11;17.10;99.90
27779;DHT22;30234;48.090;11.464;2023-07-29T07:07:12;17.00;99.90
27779;DHT22;30234;48.090;11.464;2023-07-29T07:11:13;17.00;99.90
27779;DHT22;30234;48.090;11.464;2023-07-29T07:15:17;17.10;99.90
27779;DHT22;30234;48.090;11.464;2023-07-29T07:19:18;17.20;99.90
27779;DHT22;30234;48.090;11.464;2023-07-29T07:23:19;17.40;99.90
27779;DHT22;30234;48.090;11.464;2023-07-29T07:27:20;17.50;99.90
27779;DHT22;30234;48.090;11.464;2023-07-29T07:31:22;17.60;99.90
27779;DHT22;30234;48.090;11.464;2023-07-29T07:35:23;17.60;99.90
27779;DHT22;30234;48.090;11.464;2023-07-29T07:39:24;17.60;99.90
27779;DHT22;30234;48.090;11.464;2023-07-29T07:43:25;17.70;99.90
27779;DHT22;30234;48.090;11.464;2023-07-29T07:47:25;17.90;99.90
27779;DHT22;30234;48.090;11.464;2023-07-29T07:51:26;18.00;99.90
27779;DHT22;30234;48.090;11.464;2023-07-29T07:55:27;18.10;99.90
27779;DHT22;30234;48.090;11.464;2023-07-29T07:59:28;18.10;99.90
27779;DHT22;30234;48.090;11.464;2023-07-29T08:03:30;18.40;99.90
27779;DHT22;30234;48.090;11.464;2023-07-29T08:07:31;18.80;99.90
27779;DHT22;30234;48.090;11.464;2023-07-29T08:11:32;19.60;99.90
27779;DHT22;30234;48.090;11.464;2023-07-29T08:15:33;20.20;99.90
27779;DHT22;30234;48.090;11.464;2023-07-29T08:19:33;20.50;99.90
27779;DHT22;30234;48.090;11.464;2023-07-29T08:23:36;20.50;99.90
27779;DHT22;30234;48.090;11.464;2023-07-29T08:27:37;20.70;99.90
27779;DHT22;30234;48.090;11.464;2023-07-29T08:31:39;21.60;99.90
27779;DHT22;30234;48.090;11.464;2023-07-29T08:35:40;22.00;99.90
27779;DHT22;30234;48.090;11.464;2023-07-29T08:39:40;21.90;99.90
27779;DHT22;30234;48.090;11.464;2023-07-29T08:43:54;21.80;99.90
27779;DHT22;30234;48.090;11.464;2023-07-29T08:48:02;21.90;99.90
27779;DHT22;30234;48.090;11.464;2023-07-29T08:52:09;21.70;99.90
27779;DHT22;30234;48.090;11.464;2023-07-29T08:56:10;21.60;99.90
27779;DHT22;30234;48.090;11.464;2023-07-29T09:00:11;21.70;99.90
27779;DHT22;30234;48.090;11.464;2023-07-29T09:04:13;22.00;99.90
27779;DHT22;30234;48.090;11.464;2023-07-29T09:08:14;22.40;99.90
27779;DHT22;30234;48.090;11.464;2023-07-29T09:12:15;23.00;99.90
27779;DHT22;30234;48.090;11.464;2023-07-29T09:16:16;24.10;99.90
27779;DHT22;30234;48.090;11.464;2023-07-29T09:20:24;25.10;99.90
27779;DHT22;30234;48.090;11.464;2023-07-29T09:24:28;26.80;99.90
27779;DHT22;30234;48.090;11.464;2023-07-29T09:28:38;28.50;99.90
27779;DHT22;30234;48.090;11.464;2023-07-29T09:32:39;28.60;99.90
27779;DHT22;30234;48.090;11.464;2023-07-29T09:36:40;29.60;99.90
27779;DHT22;30234;48.090;11.464;2023-07-29T09:40:42;30.50;99.90
27779;DHT22;30234;48.090;11.464;2023-07-29T09:44:44;31.40;99.90
27779;DHT22;30234;48.090;11.464;2023-07-29T09:48:44;30.70;99.90
27779;DHT22;30234;48.090;11.464;2023-07-29T09:52:47;31.00;99.90
27779;DHT22;30234;48.090;11.464;2023-07-29T09:56:49;30.40;99.90
27779;DHT22;30234;48.090;11.464;2023-07-29T10:00:50;28.40;99.90
27779;DHT22;30234;48.090;11.464;2023-07-29T10:04:52;28.00;99.90
27779;DHT22;30234;48.090;11.464;2023-07-29T10:08:53;28.00;99.90
27779;DHT22;30234;48.090;11.464;2023-07-29T10:12:54;27.80;99.90
27779;DHT22;30234;48.090;11.464;2023-07-29T10:16:57;27.80;99.90
27779;DHT22;30234;48.090;11.464;2023-07-29T10:21:00;28.60;99.90
27779;DHT22;30234;48.090;11.464;2023-07-29T10:25:08;31.20;99.90
27779;DHT22;30234;48.090;11.464;2023-07-29T10:29:14;32.70;99.10
27779;DHT22;30234;48.090;11.464;2023-07-29T10:33:19;32.50;95.90
27779;DHT22;30234;48.090;11.464;2023-07-29T10:37:22;31.80;93.80
27779;DHT22;30234;48.090;11.464;2023-07-29T10:41:23;30.20;95.30
27779;DHT22;30234;48.090;11.464;2023-07-29T10:46:18;29.30;97.10
27779;DHT22;30234;48.090;11.464;2023-07-29T10:50:21;28.90;97.50
27779;DHT22;30234;48.090;11.464;2023-07-29T10:54:23;27.70;99.90
27779;DHT22;30234;48.090;11.464;2023-07-29T10:58:24;28.40;99.90
27779;DHT22;30234;48.090;11.464;2023-07-29T11:11:12;30.00;97.00
27779;DHT22;30234;48.090;11.464;2023-07-29T11:19:24;31.60;93.60
27779;DHT22;30234;48.090;11.464;2023-07-29T11:23:30;30.20;93.20
27779;DHT22;30234;48.090;11.464;2023-07-29T11:27:35;28.40;95.40
27779;DHT22;30234;48.090;11.464;2023-07-29T11:31:40;29.00;95.70
27779;DHT22;30234;48.090;11.464;2023-07-29T11:35:41;29.30;95.30
27779;DHT22;30234;48.090;11.464;2023-07-29T11:39:43;30.10;94.10
27779;DHT22;30234;48.090;11.464;2023-07-29T11:43:44;30.10;92.80
27779;DHT22;30234;48.090;11.464;2023-07-29T11:47:46;31.30;91.50
27779;DHT22;30234;48.090;11.464;2023-07-29T11:51:46;30.50;91.40
27779;DHT22;30234;48.090;11.464;2023-07-29T11:55:53;29.20;93.10
27779;DHT22;30234;48.090;11.464;2023-07-29T11:59:55;29.10;93.90
27779;DHT22;30234;48.090;11.464;2023-07-29T12:03:56;29.30;93.70
27779;DHT22;30234;48.090;11.464;2023-07-29T12:07:57;30.00;92.20
27779;DHT22;30234;48.090;11.464;2023-07-29T12:11:58;29.60;93.20
27779;DHT22;30234;48.090;11.464;2023-07-29T12:16:03;29.40;92.80
27779;DHT22;30234;48.090;11.464;2023-07-29T12:20:08;29.40;93.60
27779;DHT22;30234;48.090;11.464;2023-07-29T12:24:14;30.70;92.60
27779;DHT22;30234;48.090;11.464;2023-07-29T12:28:15;32.20;90.30
27779;DHT22;30234;48.090;11.464;2023-07-29T12:32:16;32.50;90.10
27779;DHT22;30234;48.090;11.464;2023-07-29T12:36:17;32.60;89.70
27779;DHT22;30234;48.090;11.464;2023-07-29T12:44:31;32.40;87.50
27779;DHT22;30234;48.090;11.464;2023-07-29T12:48:34;31.50;88.40
27779;DHT22;30234;48.090;11.464;2023-07-29T12:52:35;31.10;90.30
27779;DHT22;30234;48.090;11.464;2023-07-29T12:56:36;30.50;91.00
27779;DHT22;30234;48.090;11.464;2023-07-29T13:00:36;27.70;95.90
27779;DHT22;30234;48.090;11.464;2023-07-29T13:04:38;26.20;98.80
27779;DHT22;30234;48.090;11.464;2023-07-29T13:08:39;25.20;99.90
27779;DHT22;30234;48.090;11.464;2023-07-29T13:12:40;23.90;99.90
27779;DHT22;30234;48.090;11.464;2023-07-29T13:16:41;21.10;99.90
27779;DHT22;30234;48.090;11.464;2023-07-29T13:20:42;18.60;99.90
27779;DHT22;30234;48.090;11.464;2023-07-29T13:24:43;18.50;99.90
27779;DHT22;30234;48.090;11.464;2023-07-29T13:28:44;19.00;99.90
27779;DHT22;30234;48.090;11.464;2023-07-29T13:32:45;19.70;99.90
27779;DHT22;30234;48.090;11.464;2023-07-29T13:36:46;20.30;99.90
27779;DHT22;30234;48.090;11.464;2023-07-29T13:40:47;20.40;99.90
27779;DHT22;30234;48.090;11.464;2023-07-29T13:44:47;20.50;99.90
27779;DHT22;30234;48.090;11.464;2023-07-29T13:48:49;20.80;99.90
27779;DHT22;30234;48.090;11.464;2023-07-29T13:52:49;21.10;99.90
27779;DHT22;30234;48.090;11.464;2023-07-29T13:56:50;20.90;99.90
27779;DHT22;30234;48.090;11.464;2023-07-29T14:00:51;20.50;99.90
27779;DHT22;30234;48.090;11.464;2023-07-29T14:04:52;20.20;99.90
27779;DHT22;30234;48.090;11.464;2023-07-29T14:08:53;20.00;99.90
27779;DHT22;30234;48.090;11.464;2023-07-29T14:12:54;19.70;99.90
27779;DHT22;30234;48.090;11.464;2023-07-29T14:16:55;19.70;99.90
27779;DHT22;30234;48.090;11.464;2023-07-29T14:20:56;20.00;99.90
27779;DHT22;30234;48.090;11.464;2023-07-29T14:24:58;20.30;99.90
27779;DHT22;30234;48.090;11.464;2023-07-29T14:28:58;20.20;99.90
27779;DHT22;30234;48.090;11.464;2023-07-29T14:32:59;19.80;99.90
27779;DHT22;30234;48.090;11.464;2023-07-29T14:37:00;19.60;99.90
27779;DHT22;30234;48.090;11.464;2023-07-29T14:41:01;19.60;99.90
27779;DHT22;30234;48.090;11.464;2023-07-29T14:45:02;19.50;99.90
27779;DHT22;30234;48.090;11.464;2023-07-29T14:49:03;19.40;99.90
27779;DHT22;30234;48.090;11.464;2023-07-29T14:53:04;19.30;99.90
27779;DHT22;30234;48.090;11.464;2023-07-29T14:57:06;19.40;99.90
27779;DHT22;30234;48.090;11.464;2023-07-29T15:01:09;19.50;99.90
27779;DHT22;30234;48.090;11.464;2023-07-29T15:05:09;19.30;99.90
27779;DHT22;30234;48.090;11.464;2023-07-29T15:09:11;19.40;99.90
27779;DHT22;30234;48.090;11.464;2023-07-29T15:13:12;19.60;99.90
27779;DHT22;30234;48.090;11.464;2023-07-29T15:17:12;19.90;99.90
27779;DHT22;30234;48.090;11.464;2023-07-29T15:21:13;20.20;99.90
27779;DHT22;30234;48.090;11.464;2023-07-29T15:25:14;20.50;99.90
27779;DHT22;30234;48.090;11.464;2023-07-29T15:29:15;20.80;99.90
27779;DHT22;30234;48.090;11.464;2023-07-29T15:33:16;21.10;99.90
27779;DHT22;30234;48.090;11.464;2023-07-29T15:37:17;21.20;99.90
27779;DHT22;30234;48.090;11.464;2023-07-29T15:41:18;21.20;99.90
27779;DHT22;30234;48.090;11.464;2023-07-29T15:45:19;21.30;99.90
27779;DHT22;30234;48.090;11.464;2023-07-29T15:49:20;21.50;99.90
27779;DHT22;30234;48.090;11.464;2023-07-29T15:53:21;21.70;99.90
27779;DHT22;30234;48.090;11.464;2023-07-29T15:57:21;22.00;99.90
27779;DHT22;30234;48.090;11.464;2023-07-29T16:01:23;22.00;99.90
27779;DHT22;30234;48.090;11.464;2023-07-29T16:05:24;22.10;99.90
27779;DHT22;30234;48.090;11.464;2023-07-29T16:09:25;22.30;99.90
27779;DHT22;30234;48.090;11.464;2023-07-29T16:13:27;22.40;99.90
27779;DHT22;30234;48.090;11.464;2023-07-29T16:17:28;22.70;99.90
27779;DHT22;30234;48.090;11.464;2023-07-29T16:21:29;23.00;99.90
27779;DHT22;30234;48.090;11.464;2023-07-29T16:25:30;22.70;99.90
27779;DHT22;30234;48.090;11.464;2023-07-29T16:29:33;22.40;99.90
27779;DHT22;30234;48.090;11.464;2023-07-29T16:33:34;22.10;99.90
27779;DHT22;30234;48.090;11.464;2023-07-29T16:37:35;21.80;99.90
27779;DHT22;30234;48.090;11.464;2023-07-29T16:41:36;22.00;99.90
27779;DHT22;30234;48.090;11.464;2023-07-29T16:45:37;21.80;99.90
27779;DHT22;30234;48.090;11.464;2023-07-29T16:49:38;21.50;99.90
27779;DHT22;30234;48.090;11.464;2023-07-29T16:53:39;21.10;99.90
27779;DHT22;30234;48.090;11.464;2023-07-29T16:57:39;20.70;99.90
27779;DHT22;30234;48.090;11.464;2023-07-29T17:01:40;20.60;99.90
27779;DHT22;30234;48.090;11.464;2023-07-29T17:05:41;20.40;99.90
27779;DHT22;30234;48.090;11.464;2023-07-29T17:09:43;20.10;99.90
27779;DHT22;30234;48.090;11.464;2023-07-29T17:13:46;20.20;99.90
27779;DHT22;30234;48.090;11.464;2023-07-29T17:17:46;19.90;99.90
27779;DHT22;30234;48.090;11.464;2023-07-29T17:21:47;19.90;99.90
27779;DHT22;30234;48.090;11.464;2023-07-29T17:25:48;19.90;99.90
27779;DHT22;30234;48.090;11.464;2023-07-29T17:29:49;19.80;99.90
27779;DHT22;30234;48.090;11.464;2023-07-29T17:33:50;19.60;99.90
27779;DHT22;30234;48.090;11.464;2023-07-29T17:37:51;19.60;99.90
27779;DHT22;30234;48.090;11.464;2023-07-29T17:41:52;19.60;99.90
27779;DHT22;30234;48.090;11.464;2023-07-29T17:45:53;19.60;99.90
27779;DHT22;30234;48.090;11.464;2023-07-29T17:49:55;19.60;99.90
27779;DHT22;30234;48.090;11.464;2023-07-29T17:53:55;19.60;99.90
27779;DHT22;30234;48.090;11.464;2023-07-29T17:57:56;19.40;99.90
27779;DHT22;30234;48.090;11.464;2023-07-29T18:01:58;19.30;99.90
27779;DHT22;30234;48.090;11.464;2023-07-29T18:05:59;19.20;99.90
27779;DHT22;30234;48.090;11.464;2023-07-29T18:10:00;19.10;99.90
27779;DHT22;30234;48.090;11.464;2023-07-29T18:14:01;19.10;99.90
27779;DHT22;30234;48.090;11.464;2023-07-29T18:18:02;19.00;99.90
27779;DHT22;30234;48.090;11.464;2023-07-29T18:22:06;18.90;99.90
27779;DHT22;30234;48.090;11.464;2023-07-29T18:26:07;18.90;99.90
27779;DHT22;30234;48.090;11.464;2023-07-29T18:30:08;18.80;99.90
27779;DHT22;30234;48.090;11.464;2023-07-29T18:34:10;18.90;99.90
27779;DHT22;30234;48.090;11.464;2023-07-29T18:38:13;18.90;99.90
27779;DHT22;30234;48.090;11.464;2023-07-29T18:42:14;18.90;99.90
27779;DHT22;30234;48.090;11.464;2023-07-29T18:46:18;18.90;99.90
27779;DHT22;30234;48.090;11.464;2023-07-29T18:50:19;18.80;99.90
27779;DHT22;30234;48.090;11.464;2023-07-29T18:54:20;18.70;99.90
27779;DHT22;30234;48.090;11.464;2023-07-29T18:58:20;18.70;99.90
27779;DHT22;30234;48.090;11.464;2023-07-29T19:02:21;18.60;99.90
27779;DHT22;30234;48.090;11.464;2023-07-29T19:06:22;18.60;99.90
27779;DHT22;30234;48.090;11.464;2023-07-29T19:10:24;18.60;99.90
27779;DHT22;30234;48.090;11.464;2023-07-29T19:14:25;18.70;99.90
27779;DHT22;30234;48.090;11.464;2023-07-29T19:18:26;18.80;99.90
27779;DHT22;30234;48.090;11.464;2023-07-29T19:22:29;18.80;99.90
27779;DHT22;30234;48.090;11.464;2023-07-29T19:26:30;18.80;99.90
27779;DHT22;30234;48.090;11.464;2023-07-29T19:30:31;18.80;99.90
27779;DHT22;30234;48.090;11.464;2023-07-29T19:34:32;18.70;99.90
27779;DHT22;30234;48.090;11.464;2023-07-29T19:38:33;18.80;99.90
27779;DHT22;30234;48.090;11.464;2023-07-29T19:42:34;18.80;99.90
27779;DHT22;30234;48.090;11.464;2023-07-29T19:46:35;18.70;99.90
27779;DHT22;30234;48.090;11.464;2023-07-29T19:50:36;18.70;99.90
27779;DHT22;30234;48.090;11.464;2023-07-29T19:54:37;18.60;99.90
27779;DHT22;30234;48.090;11.464;2023-07-29T19:58:38;18.50;99.90
27779;DHT22;30234;48.090;11.464;2023-07-29T20:02:39;18.50;99.90
27779;DHT22;30234;48.090;11.464;2023-07-29T20:06:40;18.70;99.90
27779;DHT22;30234;48.090;11.464;2023-07-29T20:10:40;18.70;99.90
27779;DHT22;30234;48.090;11.464;2023-07-29T20:14:41;18.70;99.90
27779;DHT22;30234;48.090;11.464;2023-07-29T20:18:42;18.60;99.90
27779;DHT22;30234;48.090;11.464;2023-07-29T20:22:43;18.60;99.90
27779;DHT22;30234;48.090;11.464;2023-07-29T20:26:50;18.70;99.90
27779;DHT22;30234;48.090;11.464;2023-07-29T20:30:58;18.80;99.90
27779;DHT22;30234;48.090;11.464;2023-07-29T20:35:02;18.70;99.90
27779;DHT22;30234;48.090;11.464;2023-07-29T20:39:03;18.90;99.90
27779;DHT22;30234;48.090;11.464;2023-07-29T20:43:05;18.90;99.90
27779;DHT22;30234;48.090;11.464;2023-07-29T20:47:06;19.00;99.90
27779;DHT22;30234;48.090;11.464;2023-07-29T20:51:07;19.10;99.90
27779;DHT22;30234;48.090;11.464;2023-07-29T20:55:08;19.10;99.90
27779;DHT22;30234;48.090;11.464;2023-07-29T20:59:09;19.00;99.90
27779;DHT22;30234;48.090;11.464;2023-07-29T21:03:11;19.10;99.90
27779;DHT22;30234;48.090;11.464;2023-07-29T21:07:12;19.20;99.90
27779;DHT22;30234;48.090;11.464;2023-07-29T21:11:13;19.20;99.90
27779;DHT22;30234;48.090;11.464;2023-07-29T21:15:14;19.30;99.90
27779;DHT22;30234;48.090;11.464;2023-07-29T21:19:15;19.20;99.90
27779;DHT22;30234;48.090;11.464;2023-07-29T21:23:17;19.30;99.90
27779;DHT22;30234;48.090;11.464;2023-07-29T21:27:21;19.30;99.90
27779;DHT22;30234;48.090;11.464;2023-07-29T21:31:22;19.30;99.90
27779;DHT22;30234;48.090;11.464;2023-07-29T21:35:23;19.30;99.90
27779;DHT22;30234;48.090;11.464;2023-07-29T21:39:24;19.20;99.90
27779;DHT22;30234;48.090;11.464;2023-07-29T21:43:25;19.30;99.90
27779;DHT22;30234;48.090;11.464;2023-07-29T21:47:26;19.40;99.90
27779;DHT22;30234;48.090;11.464;2023-07-29T21:51:27;19.40;99.90
27779;DHT22;30234;48.090;11.464;2023-07-29T21:55:30;19.30;99.90
27779;DHT22;30234;48.090;11.464;2023-07-29T21:59:30;19.30;99.90
27779;DHT22;30234;48.090;11.464;2023-07-29T22:03:31;19.30;99.90
27779;DHT22;30234;48.090;11.464;2023-07-29T22:07:32;19.40;99.90
27779;DHT22;30234;48.090;11.464;2023-07-29T22:11:36;19.30;99.90
27779;DHT22;30234;48.090;11.464;2023-07-29T22:15:37;19.30;99.90
27779;DHT22;30234;48.090;11.464;2023-07-29T22:19:38;19.20;99.90
27779;DHT22;30234;48.090;11.464;2023-07-29T22:23:39;19.40;99.90
27779;DHT22;30234;48.090;11.464;2023-07-29T22:27:40;19.40;99.90
27779;DHT22;30234;48.090;11.464;2023-07-29T22:31:41;19.50;99.90
27779;DHT22;30234;48.090;11.464;2023-07-29T22:35:42;19.30;99.90
27779;DHT22;30234;48.090;11.464;2023-07-29T22:39:43;19.30;99.90
27779;DHT22;30234;48.090;11.464;2023-07-29T22:43:44;19.10;99.90
27779;DHT22;30234;48.090;11.464;2023-07-29T22:47:45;19.20;99.90
27779;DHT22;30234;48.090;11.464;2023-07-29T22:51:46;19.10;99.90
27779;DHT22;30234;48.090;11.464;2023-07-29T22:55:48;19.00;99.90
27779;DHT22;30234;48.090;11.464;2023-07-29T22:59:49;18.90;99.90
27779;DHT22;30234;48.090;11.464;2023-07-29T23:03:50;18.90;99.90
27779;DHT22;30234;48.090;11.464;2023-07-29T23:07:51;18.90;99.90
27779;DHT22;30234;48.090;11.464;2023-07-29T23:11:52;18.90;99.90
27779;DHT22;30234;48.090;11.464;2023-07-29T23:15:53;18.80;99.90
27779;DHT22;30234;48.090;11.464;2023-07-29T23:19:54;18.80;99.90
27779;DHT22;30234;48.090;11.464;2023-07-29T23:23:55;18.90;99.90
27779;DHT22;30234;48.090;11.464;2023-07-29T23:27:56;18.90;99.90
27779;DHT22;30234;48.090;11.464;2023-07-29T23:31:57;18.90;99.90
27779;DHT22;30234;48.090;11.464;2023-07-29T23:35:59;18.70;99.90
27779;DHT22;30234;48.090;11.464;2023-07-29T23:40:01;18.60;99.90
27779;DHT22;30234;48.090;11.464;2023-07-29T23:44:02;18.60;99.90
27779;DHT22;30234;48.090;11.464;2023-07-29T23:48:03;18.60;99.90
27779;DHT22;30234;48.090;11.464;2023-07-29T23:52:04;18.60;99.90
27779;DHT22;30234;48.090;11.464;2023-07-29T23:56:06;18.50;99.90
